Time;durP1;ratioP1;P1;durP2;ratioP2;P2;SDS_P1;SDS_P2;PMS_P1;PMS_P2;Temp;Humidity;BMP_temperature;BMP_pressure;BME280_temperature;BME280_humidity;BME280_pressure;Samples;Min_cycle;Max_cycle;Signal;HPM_P1;HPM_P2
2022/05/30 00:00:53;;;;;;;;;14.00;9.00;;;;;;;;5061193;28;51387;-49
2022/05/30 00:03:40;;;;;;;;;9.75;6.50;;;;;;;;5060105;28;51088;-50
2022/05/30 00:06:30;;;;;;;;;11.75;7.00;;;;;;;;5058079;28;50968;-48
2022/05/30 00:09:14;;;;;;;;;8.75;8.00;;;;;;;;5061210;28;51156;-49
2022/05/30 00:12:01;;;;;;;;;13.00;7.25;;;;;;;;5056610;28;51118;-48
2022/05/30 00:14:47;;;;;;;;;11.75;8.75;;;;;;;;5058086;28;51199;-46
2022/05/30 00:17:35;;;;;;;;;16.25;12.00;;;;;;;;5061030;28;51209;-48
2022/05/30 00:20:23;;;;;;;;;12.25;8.50;;;;;;;;5060727;28;51072;-50
2022/05/30 00:23:07;;;;;;;;;10.00;7.75;;;;;;;;5060577;28;51138;-47
2022/05/30 00:25:52;;;;;;;;;14.75;9.00;;;;;;;;5060753;28;51205;-51
2022/05/30 00:28:37;;;;;;;;;11.25;9.00;;;;;;;;5060327;28;51121;-48
2022/05/30 00:31:22;;;;;;;;;9.00;7.50;;;;;;;;5073990;27;51075;-46
2022/05/30 00:34:06;;;;;;;;;8.25;7.25;;;;;;;;5060516;28;51143;-48
2022/05/30 00:36:50;;;;;;;;;11.00;7.75;;;;;;;;5060790;28;51421;-47
2022/05/30 00:39:35;;;;;;;;;9.75;8.00;;;;;;;;5060034;28;51160;-48
2022/05/30 00:42:21;;;;;;;;;11.00;8.00;;;;;;;;5060382;28;51276;-48
2022/05/30 00:45:05;;;;;;;;;8.75;7.00;;;;;;;;5060143;28;51568;-48
2022/05/30 00:47:52;;;;;;;;;7.75;5.00;;;;;;;;5060330;28;51185;-48
2022/05/30 00:50:37;;;;;;;;;12.00;8.00;;;;;;;;5059981;28;50988;-49
2022/05/30 00:53:21;;;;;;;;;10.75;7.50;;;;;;;;5059802;28;51204;-50
2022/05/30 00:56:09;;;;;;;;;9.75;9.50;;;;;;;;5060090;28;51063;-47
2022/05/30 00:58:54;;;;;;;;;9.00;7.75;;;;;;;;5060002;28;51192;-47
2022/05/30 01:01:37;;;;;;;;;9.25;7.25;;;;;;;;5059988;28;51148;-48
2022/05/30 01:07:25;;;;;;;;;9.50;8.75;;;;;;;;5060853;28;51054;-46
2022/05/30 01:10:10;;;;;;;;;13.00;8.00;;;;;;;;5053696;28;51402;-46
2022/05/30 01:12:56;;;;;;;;;7.25;6.25;;;;;;;;5060406;28;51133;-49
2022/05/30 01:15:40;;;;;;;;;9.75;6.50;;;;;;;;5059950;28;51045;-48
2022/05/30 01:18:33;;;;;;;;;11.00;7.00;;;;;;;;5059096;28;51087;-48
2022/05/30 01:21:53;;;;;;;;;11.75;7.75;;;;;;;;5060368;28;51067;-49
2022/05/30 01:24:52;;;;;;;;;12.50;7.75;;;;;;;;5017433;28;51062;-50
2022/05/30 01:27:55;;;;;;;;;8.50;7.25;;;;;;;;5053219;28;51534;-49
2022/05/30 01:30:40;;;;;;;;;9.75;8.00;;;;;;;;5059539;28;51167;-49
2022/05/30 01:33:24;;;;;;;;;7.25;5.75;;;;;;;;5060339;28;51164;-47
2022/05/30 01:36:09;;;;;;;;;9.25;7.00;;;;;;;;5059341;28;51443;-45
2022/05/30 01:38:53;;;;;;;;;7.75;6.50;;;;;;;;5059946;28;51027;-47
2022/05/30 01:41:38;;;;;;;;;11.75;7.50;;;;;;;;5059890;28;51106;-50
2022/05/30 01:44:22;;;;;;;;;10.25;5.75;;;;;;;;5060004;28;51120;-50
2022/05/30 01:47:06;;;;;;;;;8.75;7.25;;;;;;;;5059514;28;51373;-46
2022/05/30 01:49:51;;;;;;;;;8.25;7.50;;;;;;;;5059760;28;50999;-48
2022/05/30 01:52:35;;;;;;;;;13.00;8.50;;;;;;;;5059787;28;51066;-48
2022/05/30 01:55:19;;;;;;;;;11.50;9.75;;;;;;;;5058398;28;51114;-49
2022/05/30 01:58:05;;;;;;;;;9.50;8.25;;;;;;;;5059750;28;51032;-48
2022/05/30 02:00:49;;;;;;;;;10.50;7.75;;;;;;;;5059492;28;51082;-49
2022/05/30 02:03:34;;;;;;;;;9.50;7.75;;;;;;;;5059366;28;51171;-51
2022/05/30 02:06:23;;;;;;;;;9.75;8.25;;;;;;;;5059348;28;51089;-47
2022/05/30 02:09:07;;;;;;;;;13.00;7.50;;;;;;;;5059705;28;51189;-49
2022/05/30 02:11:51;;;;;;;;;9.75;7.50;;;;;;;;5059208;28;51576;-47
2022/05/30 02:14:36;;;;;;;;;8.00;7.75;;;;;;;;5059377;28;51026;-50
2022/05/30 02:17:20;;;;;;;;;7.75;7.75;;;;;;;;5059188;28;51845;-48
2022/05/30 02:20:06;;;;;;;;;14.00;9.25;;;;;;;;5059179;28;51097;-49
2022/05/30 02:22:50;;;;;;;;;10.00;8.25;;;;;;;;5059562;28;51117;-48
2022/05/30 02:25:34;;;;;;;;;10.25;7.75;;;;;;;;5059059;28;51441;-49
2022/05/30 02:28:19;;;;;;;;;8.00;8.00;;;;;;;;5057821;28;51129;-50
2022/05/30 02:31:04;;;;;;;;;7.75;7.75;;;;;;;;5059052;28;51025;-48
2022/05/30 02:36:51;;;;;;;;;9.00;6.75;;;;;;;;5058970;28;51039;-48
2022/05/30 02:39:35;;;;;;;;;9.75;9.00;;;;;;;;5060108;28;51042;-49
2022/05/30 02:42:20;;;;;;;;;9.25;9.25;;;;;;;;5063082;28;51348;-47
2022/05/30 02:45:04;;;;;;;;;9.50;9.50;;;;;;;;5069308;27;51132;-47
2022/05/30 02:47:49;;;;;;;;;11.50;6.50;;;;;;;;5083836;27;51003;-50
2022/05/30 02:50:33;;;;;;;;;13.50;11.50;;;;;;;;5083135;27;51489;-50
2022/05/30 02:53:17;;;;;;;;;10.00;10.00;;;;;;;;5083432;27;51137;-50
2022/05/30 02:56:03;;;;;;;;;9.25;8.00;;;;;;;;5083463;27;51143;-46
2022/05/30 02:58:47;;;;;;;;;10.75;9.25;;;;;;;;5083160;27;51270;-48
2022/05/30 03:01:31;;;;;;;;;11.50;8.50;;;;;;;;5082986;27;51485;-49
2022/05/30 03:04:16;;;;;;;;;12.00;9.25;;;;;;;;5083297;27;51038;-50
2022/05/30 03:07:02;;;;;;;;;13.75;8.50;;;;;;;;5083356;27;51004;-49
2022/05/30 03:09:46;;;;;;;;;11.00;10.00;;;;;;;;5082760;27;51033;-48
2022/05/30 03:12:31;;;;;;;;;13.50;10.25;;;;;;;;5083342;27;51041;-47
2022/05/30 03:15:15;;;;;;;;;11.75;8.75;;;;;;;;5082909;27;51576;-49
2022/05/30 03:18:01;;;;;;;;;13.00;10.50;;;;;;;;5082922;27;51171;-47
2022/05/30 03:20:45;;;;;;;;;13.00;11.25;;;;;;;;5082452;27;51223;-48
2022/05/30 03:23:30;;;;;;;;;10.50;8.75;;;;;;;;5083165;27;51148;-51
2022/05/30 03:26:16;;;;;;;;;14.25;9.00;;;;;;;;5082619;27;51245;-51
2022/05/30 03:29:00;;;;;;;;;12.50;10.00;;;;;;;;5062681;28;51118;-47
2022/05/30 03:31:44;;;;;;;;;9.00;7.50;;;;;;;;5062030;28;51117;-47
2022/05/30 03:34:28;;;;;;;;;16.25;10.25;;;;;;;;5061068;28;51263;-48
2022/05/30 03:37:13;;;;;;;;;17.75;11.25;;;;;;;;5062159;28;51141;-48
2022/05/30 03:39:57;;;;;;;;;20.00;14.25;;;;;;;;5061925;28;51152;-49
2022/05/30 03:42:42;;;;;;;;;14.00;10.50;;;;;;;;5075250;27;51042;-49
2022/05/30 03:45:26;;;;;;;;;14.50;11.00;;;;;;;;5082242;27;51508;-49
2022/05/30 03:48:12;;;;;;;;;15.75;12.50;;;;;;;;5082175;27;51074;-47
2022/05/30 03:50:56;;;;;;;;;13.25;12.00;;;;;;;;5081359;27;51589;-48
2022/05/30 03:53:41;;;;;;;;;23.00;13.50;;;;;;;;5082155;27;51045;-49
2022/05/30 03:56:25;;;;;;;;;17.75;13.75;;;;;;;;5081936;27;51046;-50
2022/05/30 03:59:10;;;;;;;;;16.25;15.50;;;;;;;;5081756;27;51144;-50
2022/05/30 04:01:54;;;;;;;;;21.00;19.50;;;;;;;;5082284;27;51008;-49
2022/05/30 04:04:38;;;;;;;;;30.25;28.25;;;;;;;;5081484;27;52639;-48
2022/05/30 04:07:23;;;;;;;;;31.75;26.00;;;;;;;;5081661;27;51108;-49
2022/05/30 04:10:07;;;;;;;;;23.00;20.25;;;;;;;;5081598;27;51089;-50
2022/05/30 04:13:02;;;;;;;;;14.25;10.25;;;;;;;;5081968;27;51069;-49
2022/05/30 04:15:46;;;;;;;;;18.00;14.00;;;;;;;;5081478;27;51260;-49
2022/05/30 04:18:31;;;;;;;;;13.50;13.50;;;;;;;;5081452;27;51083;-51
2022/05/30 04:21:16;;;;;;;;;16.50;13.75;;;;;;;;5081360;27;51334;-48
2022/05/30 04:24:00;;;;;;;;;4.50;4.50;;;;;;;;5081425;27;51168;-48
2022/05/30 04:26:44;;;;;;;;;14.00;9.75;;;;;;;;5069768;27;51074;-50
2022/05/30 04:29:29;;;;;;;;;12.50;10.25;;;;;;;;5059253;28;51528;-50
2022/05/30 04:32:13;;;;;;;;;12.25;12.00;;;;;;;;5057687;27;51131;-49
2022/05/30 04:34:58;;;;;;;;;14.00;11.50;;;;;;;;5043356;27;51319;-50
2022/05/30 04:37:43;;;;;;;;;18.75;12.00;;;;;;;;5060300;27;51600;-50
2022/05/30 04:40:27;;;;;;;;;16.50;12.00;;;;;;;;5059571;28;51181;-47
2022/05/30 04:43:11;;;;;;;;;13.00;11.00;;;;;;;;5067567;27;51134;-47
2022/05/30 04:46:16;;;;;;;;;13.50;12.75;;;;;;;;5080602;27;51483;-50
2022/05/30 04:49:01;;;;;;;;;15.50;14.50;;;;;;;;5079986;27;51117;-47
2022/05/30 04:51:45;;;;;;;;;17.00;16.50;;;;;;;;5072795;27;51059;-50
2022/05/30 04:54:29;;;;;;;;;15.75;12.00;;;;;;;;5059802;28;51156;-46
2022/05/30 04:57:14;;;;;;;;;14.25;14.25;;;;;;;;5073401;27;51299;-49
2022/05/30 04:59:58;;;;;;;;;17.00;13.25;;;;;;;;5080382;27;51120;-47
2022/05/30 05:02:43;;;;;;;;;15.25;12.00;;;;;;;;5055058;28;51146;-49
2022/05/30 05:05:27;;;;;;;;;19.00;16.00;;;;;;;;5059456;28;50982;-49
2022/05/30 05:08:15;;;;;;;;;14.50;14.50;;;;;;;;5059694;28;51157;-46
2022/05/30 05:11:03;;;;;;;;;13.00;12.50;;;;;;;;5059892;28;51382;-48
2022/05/30 05:13:48;;;;;;;;;16.75;15.50;;;;;;;;5059877;28;51147;-47
2022/05/30 05:16:32;;;;;;;;;16.50;16.00;;;;;;;;5059395;28;51115;-47
2022/05/30 05:19:16;;;;;;;;;17.50;14.25;;;;;;;;5059341;28;51463;-49
2022/05/30 05:22:01;;;;;;;;;14.25;12.75;;;;;;;;5059658;28;51167;-48
2022/05/30 05:24:45;;;;;;;;;10.25;10.25;;;;;;;;5059103;28;51160;-45
2022/05/30 05:27:29;;;;;;;;;10.75;8.75;;;;;;;;5056153;28;51209;-47
2022/05/30 05:30:14;;;;;;;;;14.50;12.75;;;;;;;;5054055;28;51259;-48
2022/05/30 05:32:58;;;;;;;;;14.25;13.00;;;;;;;;5059452;28;51099;-49
2022/05/30 05:35:44;;;;;;;;;17.50;14.75;;;;;;;;5073580;27;51186;-47
2022/05/30 05:38:28;;;;;;;;;16.50;14.50;;;;;;;;5079346;27;51104;-51
2022/05/30 05:41:12;;;;;;;;;19.00;14.50;;;;;;;;5079848;27;51130;-51
2022/05/30 05:43:57;;;;;;;;;26.25;19.75;;;;;;;;5078945;27;51187;-47
2022/05/30 05:46:42;;;;;;;;;41.00;33.00;;;;;;;;5078869;27;51213;-50
2022/05/30 05:49:27;;;;;;;;;45.50;37.25;;;;;;;;5063929;27;51087;-48
2022/05/30 05:52:11;;;;;;;;;49.00;39.25;;;;;;;;5079912;27;51287;-46
2022/05/30 05:55:20;;;;;;;;;34.75;29.25;;;;;;;;5078846;27;51443;-47
2022/05/30 05:58:05;;;;;;;;;21.50;18.50;;;;;;;;5068493;27;51051;-49
2022/05/30 06:00:49;;;;;;;;;24.25;21.25;;;;;;;;5058846;28;51469;-48
2022/05/30 06:03:34;;;;;;;;;25.00;21.00;;;;;;;;5058882;28;51070;-46
2022/05/30 06:06:18;;;;;;;;;23.25;19.75;;;;;;;;5058626;28;51092;-51
2022/05/30 06:09:04;;;;;;;;;28.75;24.25;;;;;;;;5058531;28;51408;-49
2022/05/30 06:11:49;;;;;;;;;29.00;25.00;;;;;;;;5058739;28;51142;-50
2022/05/30 06:14:33;;;;;;;;;27.50;21.50;;;;;;;;5057467;28;51080;-51
2022/05/30 06:17:17;;;;;;;;;27.25;25.00;;;;;;;;5058353;28;51184;-48
2022/05/30 06:20:02;;;;;;;;;28.00;24.75;;;;;;;;5058305;28;51472;-48
2022/05/30 06:22:46;;;;;;;;;26.25;22.00;;;;;;;;5058492;28;51123;-51
2022/05/30 06:25:31;;;;;;;;;29.25;24.25;;;;;;;;5058917;28;51607;-48
2022/05/30 06:28:15;;;;;;;;;30.75;26.00;;;;;;;;5058654;28;51159;-47
2022/05/30 06:31:00;;;;;;;;;32.00;27.00;;;;;;;;5059395;28;51161;-50
2022/05/30 06:33:44;;;;;;;;;29.00;26.50;;;;;;;;5058931;28;51557;-47
2022/05/30 06:36:29;;;;;;;;;26.25;22.00;;;;;;;;5061995;28;51082;-48
2022/05/30 06:39:14;;;;;;;;;27.75;23.00;;;;;;;;5079049;28;51175;-50
2022/05/30 06:41:58;;;;;;;;;28.75;24.25;;;;;;;;5079640;28;51053;-48
2022/05/30 06:44:43;;;;;;;;;28.50;28.00;;;;;;;;5079336;27;51042;-48
2022/05/30 06:47:27;;;;;;;;;43.50;31.50;;;;;;;;5078984;28;51030;-52
2022/05/30 06:50:11;;;;;;;;;34.50;30.50;;;;;;;;5079459;28;51214;-49
2022/05/30 06:52:56;;;;;;;;;33.25;29.50;;;;;;;;5079101;28;51101;-49
2022/05/30 06:55:40;;;;;;;;;24.00;23.00;;;;;;;;5079441;28;51020;-48
2022/05/30 06:58:25;;;;;;;;;23.50;22.00;;;;;;;;5069932;27;51635;-49
2022/05/30 07:01:10;;;;;;;;;32.75;27.75;;;;;;;;5058542;28;51458;-49
2022/05/30 07:03:54;;;;;;;;;29.75;28.00;;;;;;;;5058854;28;51016;-51
2022/05/30 07:06:38;;;;;;;;;34.25;28.75;;;;;;;;5058889;28;51050;-50
2022/05/30 07:09:23;;;;;;;;;23.75;22.50;;;;;;;;5058651;28;51361;-50
2022/05/30 07:12:09;;;;;;;;;23.75;20.50;;;;;;;;5058819;28;51095;-50
2022/05/30 07:14:53;;;;;;;;;24.25;22.00;;;;;;;;5058608;28;51130;-49
2022/05/30 07:17:37;;;;;;;;;25.50;22.50;;;;;;;;5058527;28;52219;-51
2022/05/30 07:20:22;;;;;;;;;22.25;17.50;;;;;;;;5079081;28;51237;-48
2022/05/30 07:23:06;;;;;;;;;19.50;19.50;;;;;;;;5079160;28;51049;-49
2022/05/30 07:25:56;;;;;;;;;20.50;14.75;;;;;;;;5080413;27;51513;-49
2022/05/30 07:28:40;;;;;;;;;17.75;14.00;;;;;;;;5057515;28;51106;-51
2022/05/30 07:31:25;;;;;;;;;12.75;11.50;;;;;;;;5058286;28;51173;-52
2022/05/30 07:34:09;;;;;;;;;16.25;12.00;;;;;;;;5061280;28;51341;-52
2022/05/30 07:36:54;;;;;;;;;14.00;11.50;;;;;;;;5061384;28;51014;-51
2022/05/30 07:39:38;;;;;;;;;14.25;11.75;;;;;;;;5062110;28;51193;-51
2022/05/30 07:42:23;;;;;;;;;12.50;10.50;;;;;;;;5062028;28;51217;-50
2022/05/30 07:45:08;;;;;;;;;13.00;10.75;;;;;;;;5062051;28;51114;-48
2022/05/30 07:47:53;;;;;;;;;10.25;7.75;;;;;;;;5061535;28;51128;-51
2022/05/30 07:50:37;;;;;;;;;10.50;8.50;;;;;;;;5062147;28;51181;-48
2022/05/30 07:53:22;;;;;;;;;9.00;7.50;;;;;;;;5061906;28;51016;-48
2022/05/30 07:56:07;;;;;;;;;14.50;10.00;;;;;;;;5061745;28;51045;-47
2022/05/30 07:58:51;;;;;;;;;8.75;8.25;;;;;;;;5061579;28;51451;-47
2022/05/30 08:01:36;;;;;;;;;12.75;8.50;;;;;;;;5061714;28;51200;-49
2022/05/30 08:04:20;;;;;;;;;7.50;7.00;;;;;;;;5061622;28;51438;-50
2022/05/30 08:07:05;;;;;;;;;10.00;9.00;;;;;;;;5061462;28;51137;-49
2022/05/30 08:09:50;;;;;;;;;9.50;6.50;;;;;;;;5061927;28;51338;-51
2022/05/30 08:12:34;;;;;;;;;8.50;7.50;;;;;;;;5061304;28;51420;-51
2022/05/30 08:15:19;;;;;;;;;6.75;6.50;;;;;;;;5061407;28;51509;-51
2022/05/30 08:18:03;;;;;;;;;13.75;10.25;;;;;;;;5061122;28;51053;-51
2022/05/30 08:20:48;;;;;;;;;10.25;10.25;;;;;;;;5061663;28;51079;-50
2022/05/30 08:23:32;;;;;;;;;9.00;6.50;;;;;;;;5080755;27;51456;-51
2022/05/30 08:26:16;;;;;;;;;11.75;9.25;;;;;;;;5060014;27;51267;-49
2022/05/30 08:29:01;;;;;;;;;11.50;9.00;;;;;;;;5055847;28;51872;-50
2022/05/30 08:31:45;;;;;;;;;11.75;6.50;;;;;;;;5060141;28;51175;-51
2022/05/30 08:34:29;;;;;;;;;9.25;7.75;;;;;;;;5061275;28;51054;-51
2022/05/30 08:37:14;;;;;;;;;9.00;8.00;;;;;;;;5072036;27;51058;-50
2022/05/30 08:43:02;;;;;;;;;10.50;9.75;;;;;;;;5060765;28;51051;-51
2022/05/30 08:45:46;;;;;;;;;10.50;7.50;;;;;;;;5061171;28;51080;-49
2022/05/30 08:48:41;;;;;;;;;14.25;9.25;;;;;;;;5060657;28;51459;-51
2022/05/30 08:51:43;;;;;;;;;12.25;8.25;;;;;;;;5060677;28;51153;-49
2022/05/30 08:54:27;;;;;;;;;9.25;7.75;;;;;;;;5060618;28;51446;-50
2022/05/30 08:57:31;;;;;;;;;13.50;7.25;;;;;;;;5056055;28;51509;-48
2022/05/30 09:00:20;;;;;;;;;11.75;9.00;;;;;;;;5059127;28;51170;-49
2022/05/30 09:03:22;;;;;;;;;7.00;6.00;;;;;;;;5073504;27;51387;-50
2022/05/30 09:06:09;;;;;;;;;10.25;7.75;;;;;;;;5060600;28;51117;-47
2022/05/30 09:09:00;;;;;;;;;8.75;7.75;;;;;;;;5055661;28;51077;-49
2022/05/30 09:11:47;;;;;;;;;13.75;11.00;;;;;;;;5058449;28;51169;-47
2022/05/30 09:14:34;;;;;;;;;13.50;10.25;;;;;;;;5059484;28;51513;-48
2022/05/30 09:17:41;;;;;;;;;9.25;7.75;;;;;;;;5059843;28;51053;-48
2022/05/30 09:20:27;;;;;;;;;10.50;7.75;;;;;;;;5059716;28;51425;-50
2022/05/30 09:23:12;;;;;;;;;15.50;9.00;;;;;;;;5058725;28;51094;-49
2022/05/30 09:26:07;;;;;;;;;8.00;7.75;;;;;;;;5060002;28;51019;-49
2022/05/30 09:28:55;;;;;;;;;12.50;9.25;;;;;;;;5059647;28;51412;-48
2022/05/30 09:32:08;;;;;;;;;16.00;9.25;;;;;;;;5059380;28;51097;-49
2022/05/30 09:34:53;;;;;;;;;13.00;9.50;;;;;;;;5048860;28;51242;-49
2022/05/30 09:37:41;;;;;;;;;9.25;8.50;;;;;;;;5069511;27;51144;-50
2022/05/30 09:40:34;;;;;;;;;12.75;9.50;;;;;;;;5079473;27;51566;-47
2022/05/30 09:43:48;;;;;;;;;12.00;8.75;;;;;;;;5079244;27;51128;-50
2022/05/30 09:46:38;;;;;;;;;8.25;6.50;;;;;;;;5077825;27;51110;-50
2022/05/30 09:49:23;;;;;;;;;13.75;7.50;;;;;;;;5079459;27;51105;-49
2022/05/30 09:52:26;;;;;;;;;9.00;8.00;;;;;;;;5057594;28;51089;-49
2022/05/30 09:55:29;;;;;;;;;11.00;6.75;;;;;;;;5059438;28;51576;-48
2022/05/30 09:58:15;;;;;;;;;13.00;10.25;;;;;;;;5063849;27;51333;-47
2022/05/30 10:01:00;;;;;;;;;13.75;12.50;;;;;;;;5059174;28;51426;-49
2022/05/30 10:03:44;;;;;;;;;10.00;8.00;;;;;;;;5057657;28;51145;-49
2022/05/30 10:06:29;;;;;;;;;15.00;10.00;;;;;;;;5057350;28;51563;-48
2022/05/30 10:09:15;;;;;;;;;9.25;9.25;;;;;;;;5058718;28;51156;-47
2022/05/30 10:11:59;;;;;;;;;10.25;8.75;;;;;;;;5059203;28;51325;-50
2022/05/30 10:14:44;;;;;;;;;15.75;11.25;;;;;;;;5057609;28;51160;-49
2022/05/30 10:17:32;;;;;;;;;12.50;10.00;;;;;;;;5058471;28;51140;-50
2022/05/30 10:20:36;;;;;;;;;7.25;6.50;;;;;;;;5058595;28;51123;-47
2022/05/30 10:29:57;;;;;;;;;8.50;8.00;;;;;;;;5079298;28;51128;-47
2022/05/30 10:32:46;;;;;;;;;10.00;8.00;;;;;;;;5078724;28;51441;-49
2022/05/30 10:35:36;;;;;;;;;12.00;8.00;;;;;;;;5079000;28;51438;-49
2022/05/30 10:38:42;;;;;;;;;12.50;9.00;;;;;;;;5078410;28;51358;-47
2022/05/30 10:41:26;;;;;;;;;11.50;9.00;;;;;;;;5074129;28;51145;-49
2022/05/30 10:44:21;;;;;;;;;8.00;4.75;;;;;;;;5079711;28;51138;-50
2022/05/30 10:47:35;;;;;;;;;13.25;9.50;;;;;;;;5076556;28;51493;-47
2022/05/30 10:50:53;;;;;;;;;14.50;9.75;;;;;;;;5076981;28;51195;-50
2022/05/30 10:53:37;;;;;;;;;10.50;9.00;;;;;;;;5058784;28;51162;-49
2022/05/30 10:56:39;;;;;;;;;11.50;9.50;;;;;;;;5052117;28;51121;-48
2022/05/30 11:00:04;;;;;;;;;11.75;8.00;;;;;;;;5055691;28;51188;-50
2022/05/30 11:03:06;;;;;;;;;10.75;9.75;;;;;;;;5018362;28;51130;-48
2022/05/30 11:06:15;;;;;;;;;11.50;9.25;;;;;;;;5019347;28;51373;-50
2022/05/30 11:08:59;;;;;;;;;10.00;9.25;;;;;;;;5060826;28;51028;-45
2022/05/30 11:11:51;;;;;;;;;10.25;8.75;;;;;;;;5062155;28;51014;-49
2022/05/30 11:15:04;;;;;;;;;12.25;8.25;;;;;;;;5061814;28;51114;-49
2022/05/30 11:18:07;;;;;;;;;10.50;10.50;;;;;;;;5061665;28;51094;-46
2022/05/30 11:21:15;;;;;;;;;12.00;9.25;;;;;;;;5061782;28;50986;-48
2022/05/30 11:24:02;;;;;;;;;11.75;9.50;;;;;;;;5060606;28;51184;-49
2022/05/30 11:27:05;;;;;;;;;10.00;8.25;;;;;;;;5061778;28;51568;-47
2022/05/30 11:29:59;;;;;;;;;13.75;10.50;;;;;;;;5061909;28;51076;-46
2022/05/30 11:33:01;;;;;;;;;13.25;9.00;;;;;;;;5061934;28;51382;-45
2022/05/30 11:36:03;;;;;;;;;10.50;8.50;;;;;;;;5061972;28;51066;-48
2022/05/30 11:38:54;;;;;;;;;15.25;12.00;;;;;;;;5061938;28;51204;-47
2022/05/30 11:42:13;;;;;;;;;10.50;9.25;;;;;;;;5074311;27;51156;-48
2022/05/30 11:44:59;;;;;;;;;7.25;6.25;;;;;;;;5019308;28;51585;-47
2022/05/30 11:48:10;;;;;;;;;12.50;9.75;;;;;;;;5019666;28;51129;-47
2022/05/30 11:51:07;;;;;;;;;11.75;10.50;;;;;;;;5018797;28;51085;-46
2022/05/30 11:54:08;;;;;;;;;11.00;9.50;;;;;;;;5018762;28;51531;-50
2022/05/30 11:57:10;;;;;;;;;11.75;9.75;;;;;;;;5019087;28;53529;-49
2022/05/30 12:03:24;;;;;;;;;8.50;7.25;;;;;;;;5061375;28;51140;-50
2022/05/30 12:06:28;;;;;;;;;14.75;8.50;;;;;;;;5061478;28;51094;-47
2022/05/30 12:09:16;;;;;;;;;11.00;7.50;;;;;;;;5061421;28;51192;-45
2022/05/30 12:12:23;;;;;;;;;16.00;8.50;;;;;;;;5061091;28;51267;-50
2022/05/30 12:15:28;;;;;;;;;10.75;9.00;;;;;;;;5061432;28;51159;-49
2022/05/30 12:24:37;;;;;;;;;9.50;8.00;;;;;;;;5053090;28;51057;-50
2022/05/30 12:27:36;;;;;;;;;12.50;8.75;;;;;;;;5058059;27;51875;-47
2022/05/30 12:30:38;;;;;;;;;9.75;7.00;;;;;;;;5060848;28;51338;-50
2022/05/30 12:33:30;;;;;;;;;11.00;9.75;;;;;;;;5061160;28;50962;-47
2022/05/30 12:36:16;;;;;;;;;11.50;8.00;;;;;;;;5060915;28;51001;-50
2022/05/30 12:39:01;;;;;;;;;10.75;8.00;;;;;;;;5061054;28;51131;-48
2022/05/30 12:41:56;;;;;;;;;8.50;7.50;;;;;;;;5060826;28;51088;-48
2022/05/30 12:44:43;;;;;;;;;8.50;7.25;;;;;;;;5061259;28;51241;-49
2022/05/30 12:47:33;;;;;;;;;11.00;7.75;;;;;;;;5060586;28;51590;-48
2022/05/30 12:50:46;;;;;;;;;12.25;8.25;;;;;;;;5074053;27;51028;-49
2022/05/30 12:53:49;;;;;;;;;12.00;7.50;;;;;;;;5060951;28;51502;-46
2022/05/30 12:56:39;;;;;;;;;16.75;8.25;;;;;;;;5060493;28;51140;-47
2022/05/30 12:59:33;;;;;;;;;10.75;8.75;;;;;;;;5060513;28;50993;-47
2022/05/30 13:02:37;;;;;;;;;11.00;9.25;;;;;;;;5060664;28;51156;-48
2022/05/30 13:05:38;;;;;;;;;13.00;8.50;;;;;;;;5060502;28;51353;-48
2022/05/30 13:08:43;;;;;;;;;12.50;7.50;;;;;;;;5060092;28;51110;-49
2022/05/30 13:11:33;;;;;;;;;9.75;8.25;;;;;;;;5060520;28;51121;-51
2022/05/30 13:14:31;;;;;;;;;12.00;7.50;;;;;;;;5060370;28;51051;-47
2022/05/30 13:17:30;;;;;;;;;9.25;9.00;;;;;;;;5060291;28;51152;-49
2022/05/30 13:20:30;;;;;;;;;14.25;7.75;;;;;;;;5060186;28;51154;-47
2022/05/30 13:26:39;;;;;;;;;11.25;9.75;;;;;;;;5029681;28;51150;-47
2022/05/30 13:29:28;;;;;;;;;9.25;7.25;;;;;;;;5019831;28;51213;-48
2022/05/30 13:32:17;;;;;;;;;9.50;7.75;;;;;;;;5019828;28;51011;-49
2022/05/30 13:35:09;;;;;;;;;11.75;10.75;;;;;;;;5032252;28;51111;-48
2022/05/30 13:37:56;;;;;;;;;9.75;6.75;;;;;;;;5019757;28;51078;-48
2022/05/30 13:40:42;;;;;;;;;10.50;8.00;;;;;;;;5019325;28;51596;-48
2022/05/30 13:43:39;;;;;;;;;11.75;9.00;;;;;;;;5019486;28;51000;-46
2022/05/30 13:46:32;;;;;;;;;13.00;8.75;;;;;;;;5019640;28;51281;-47
2022/05/30 13:49:49;;;;;;;;;9.50;8.75;;;;;;;;5018544;28;51000;-47
2022/05/30 13:52:34;;;;;;;;;10.25;9.00;;;;;;;;4997441;28;51568;-48
2022/05/30 13:55:24;;;;;;;;;13.25;8.75;;;;;;;;4997359;28;51151;-48
2022/05/30 13:58:09;;;;;;;;;7.75;6.00;;;;;;;;4997267;28;51175;-48
2022/05/30 14:00:57;;;;;;;;;14.00;10.50;;;;;;;;4997370;28;51200;-47
2022/05/30 14:03:47;;;;;;;;;11.00;9.00;;;;;;;;5019464;28;51070;-47
2022/05/30 14:06:33;;;;;;;;;9.00;7.25;;;;;;;;5018952;28;51312;-45
2022/05/30 14:09:19;;;;;;;;;11.75;8.00;;;;;;;;5019181;28;51126;-45
2022/05/30 14:12:09;;;;;;;;;10.00;9.00;;;;;;;;5032295;28;51086;-46
2022/05/30 14:15:05;;;;;;;;;9.50;8.25;;;;;;;;5018967;28;51137;-48
2022/05/30 14:17:54;;;;;;;;;7.50;7.25;;;;;;;;5018782;28;51036;-47
2022/05/30 14:20:53;;;;;;;;;13.25;10.00;;;;;;;;5019223;28;51241;-47
2022/05/30 14:23:58;;;;;;;;;8.50;7.75;;;;;;;;5036534;28;51347;-48
2022/05/30 14:30:25;;;;;;;;;13.00;10.50;;;;;;;;5036917;28;51281;-48
2022/05/30 14:33:24;;;;;;;;;14.25;8.25;;;;;;;;5036420;28;51586;-49
2022/05/30 14:36:28;;;;;;;;;13.25;8.25;;;;;;;;5040280;28;51255;-47
2022/05/30 14:39:23;;;;;;;;;14.50;9.00;;;;;;;;5040589;28;51191;-48
2022/05/30 14:44:56;;;;;;;;;13.75;8.00;;;;;;;;5000582;28;51116;-47
2022/05/30 14:47:50;;;;;;;;;10.50;9.00;;;;;;;;4999484;28;51176;-48
2022/05/30 14:50:48;;;;;;;;;14.50;12.25;;;;;;;;4998827;28;51184;-47
2022/05/30 14:53:38;;;;;;;;;11.75;9.50;;;;;;;;5000388;28;51181;-46
2022/05/30 14:56:26;;;;;;;;;13.50;11.75;;;;;;;;4987063;28;51150;-46
2022/05/30 14:59:25;;;;;;;;;9.25;9.25;;;;;;;;4986100;28;51066;-47
2022/05/30 15:04:02;;;;;;;;;14.50;9.00;;;;;;;;5019848;28;51209;-45
2022/05/30 15:05:19;;;;;;;;;11.50;10.00;;;;;;;;5020268;28;51554;-49
2022/05/30 15:08:04;;;;;;;;;12.00;9.25;;;;;;;;5020273;28;51096;-47
2022/05/30 15:10:48;;;;;;;;;11.75;11.00;;;;;;;;5020045;28;51190;-47
2022/05/30 15:13:37;;;;;;;;;11.75;8.50;;;;;;;;5020169;28;51220;-49
2022/05/30 15:16:21;;;;;;;;;8.75;8.75;;;;;;;;5016587;28;51100;-50
2022/05/30 15:19:07;;;;;;;;;13.75;8.50;;;;;;;;5000160;28;51291;-48
2022/05/30 15:21:56;;;;;;;;;7.25;7.25;;;;;;;;5009525;28;51128;-48
2022/05/30 15:24:45;;;;;;;;;11.25;9.75;;;;;;;;5022148;28;51067;-49
2022/05/30 15:27:31;;;;;;;;;15.25;10.00;;;;;;;;5020955;28;51146;-47
2022/05/30 15:30:36;;;;;;;;;10.75;8.75;;;;;;;;5021933;28;51321;-50
2022/05/30 15:33:20;;;;;;;;;9.00;8.00;;;;;;;;5021967;28;51167;-48
2022/05/30 15:36:05;;;;;;;;;12.25;10.25;;;;;;;;5019313;28;51167;-46
2022/05/30 15:39:11;;;;;;;;;13.00;8.50;;;;;;;;5021540;28;51223;-47
2022/05/30 15:41:57;;;;;;;;;11.50;9.50;;;;;;;;5021117;28;51382;-48
2022/05/30 15:44:42;;;;;;;;;7.25;5.50;;;;;;;;5021275;28;51129;-50
2022/05/30 15:47:38;;;;;;;;;8.25;8.25;;;;;;;;5021334;28;51026;-49
2022/05/30 15:50:22;;;;;;;;;11.25;6.50;;;;;;;;5019392;28;51106;-48
2022/05/30 15:59:36;;;;;;;;;11.00;10.00;;;;;;;;5019567;28;51153;-49
2022/05/30 16:02:30;;;;;;;;;11.00;9.75;;;;;;;;5019340;28;51138;-46
2022/05/30 16:05:14;;;;;;;;;15.00;10.75;;;;;;;;5020831;28;51197;-46
2022/05/30 16:08:06;;;;;;;;;11.00;8.00;;;;;;;;5021319;28;51424;-48
2022/05/30 16:10:57;;;;;;;;;15.25;12.25;;;;;;;;5021000;28;51398;-46
2022/05/30 16:13:42;;;;;;;;;11.75;10.25;;;;;;;;5021125;28;51579;-47
2022/05/30 16:16:26;;;;;;;;;12.00;10.50;;;;;;;;5020631;28;51522;-49
2022/05/30 16:19:21;;;;;;;;;11.50;9.50;;;;;;;;5020977;28;51111;-49
2022/05/30 16:22:07;;;;;;;;;12.75;9.50;;;;;;;;5020544;28;51108;-48
2022/05/30 16:24:58;;;;;;;;;12.75;10.50;;;;;;;;5033991;28;51133;-49
2022/05/30 16:28:05;;;;;;;;;14.00;11.00;;;;;;;;5049655;28;51539;-46
2022/05/30 16:30:51;;;;;;;;;15.00;10.50;;;;;;;;5059191;28;51115;-47
2022/05/30 16:33:39;;;;;;;;;13.00;11.25;;;;;;;;5060301;28;51343;-48
2022/05/30 16:36:42;;;;;;;;;16.75;11.75;;;;;;;;5059859;28;51119;-45
2022/05/30 16:43:11;;;;;;;;;21.00;11.00;;;;;;;;5059764;27;51562;-46
2022/05/30 16:46:17;;;;;;;;;11.50;9.00;;;;;;;;5060680;28;51072;-47
2022/05/30 16:49:02;;;;;;;;;16.00;15.75;;;;;;;;5061900;28;51061;-48
2022/05/30 16:51:47;;;;;;;;;11.00;9.50;;;;;;;;5060290;28;51177;-48
2022/05/30 16:54:32;;;;;;;;;13.25;11.00;;;;;;;;5059450;28;51497;-47
2022/05/30 16:57:17;;;;;;;;;18.50;13.00;;;;;;;;5058228;28;51153;-49
2022/05/30 17:00:06;;;;;;;;;16.50;13.50;;;;;;;;5058172;28;51585;-46
2022/05/30 17:02:53;;;;;;;;;14.75;12.00;;;;;;;;5059692;28;51126;-47
2022/05/30 17:05:43;;;;;;;;;25.50;21.00;;;;;;;;5068930;27;51079;-47
2022/05/30 17:08:31;;;;;;;;;32.50;28.75;;;;;;;;5059085;28;51138;-46
2022/05/30 17:11:15;;;;;;;;;37.25;31.75;;;;;;;;5060549;28;51019;-49
2022/05/30 17:14:03;;;;;;;;;65.50;49.00;;;;;;;;5059819;28;51160;-48
2022/05/30 17:16:49;;;;;;;;;35.00;29.00;;;;;;;;5060459;28;51088;-48
2022/05/30 17:19:53;;;;;;;;;40.50;32.75;;;;;;;;4997494;28;51697;-46
2022/05/30 17:22:37;;;;;;;;;67.00;51.50;;;;;;;;4997799;28;51265;-49